KCRE/CRE METAR and TAF weather

Enter ICAO airport designator
Station Type Date Time Source
KCRE METAR 2018/12/12 23:53 UTC NOAA

KCRE 122353Z 00000KT 10SM CLR 06/04 A3023 RMK AO1 SLP236 T00560039 10106 20056 53011


Station Type Date Time Source
KCRE Decoded METAR 2018/12/12 23:53 UTC NOAA

N. MYRTLE BCH.GRAND STRAND, SC, United States (KCRE) 33-49N 078-43W 10M
Dec 12, 2018 - 06:53 PM EST / 2018.12.12 2353 UTC
Wind: Calm:0
Visibility: 10 mile(s):0
Sky conditions: clear
Temperature: 42.1 F (5.6 C)
Dew Point: 39.0 F (3.9 C)
Relative Humidity: 88%
Pressure (altimeter): 30.23 in. Hg (1023 hPa)
Pressure tendency: 0.03 inches (1.1 hPa) higher than three hours ago
ob: KCRE 122353Z 00000KT 10SM CLR 06/04 A3023 RMK AO1 SLP236 T00560039 10106 20056 53011
cycle: 0

Station Type Date Time Source
KCRE TAF 2018/12/12 18:22 UTC NOAA

TAF KCRE 121720Z 1218/1318 19008KT P6SM BKN250
FM122300 VRB02KT P6SM BKN190
FM131500 14005KT P6SM SCT120 BKN180


Example: see airport list